Time;durP1;ratioP1;P1;durP2;ratioP2;P2;SDS_P1;SDS_P2;PMS_P1;PMS_P2;Temp;Humidity;BMP_temperature;BMP_pressure;BME280_temperature;BME280_humidity;BME280_pressure;Samples;Min_cycle;Max_cycle;Signal;HPM_P1;HPM_P2
2022/01/19 00:00:36;;;;;;;54.17;24.55;;;5.20;99.90;;;;;;5073213;28;20115;-67
2022/01/19 00:03:01;;;;;;;48.45;22.85;;;5.10;99.90;;;;;;5072320;28;20040;-67
2022/01/19 00:05:27;;;;;;;54.33;24.65;;;5.10;99.90;;;;;;5073003;28;20389;-67
2022/01/19 00:07:53;;;;;;;53.70;23.85;;;5.10;99.90;;;;;;5072732;28;20488;-68
2022/01/19 00:10:26;;;;;;;56.50;26.52;;;5.00;99.90;;;;;;5072784;28;20173;-68
2022/01/19 00:12:52;;;;;;;;;;;5.10;99.90;;;;;;5073509;28;20090;-68
2022/01/19 00:15:18;;;;;;;52.25;24.27;;;5.00;99.90;;;;;;5072080;28;20359;-68
2022/01/19 00:17:43;;;;;;;52.42;22.60;;;5.00;99.90;;;;;;5072622;28;20028;-68
2022/01/19 00:20:09;;;;;;;57.35;23.80;;;5.10;99.90;;;;;;5071725;28;20484;-67
2022/01/19 00:22:37;;;;;;;52.20;23.80;;;5.00;99.90;;;;;;5071656;28;20040;-67
2022/01/19 00:25:04;;;;;;;62.58;25.35;;;5.10;99.90;;;;;;5073080;28;20045;-68
2022/01/19 00:27:29;;;;;;;57.00;24.42;;;5.10;99.90;;;;;;5072759;28;20047;-68
2022/01/19 00:29:55;;;;;;;58.45;23.35;;;5.10;99.90;;;;;;5072900;28;20045;-68
2022/01/19 00:32:23;;;;;;;51.03;23.20;;;5.00;99.90;;;;;;5073118;28;20037;-68
2022/01/19 00:34:49;;;;;;;63.88;23.95;;;5.10;99.90;;;;;;5072649;28;20452;-68
2022/01/19 00:37:14;;;;;;;54.03;23.08;;;5.10;99.90;;;;;;5072752;28;20123;-67
2022/01/19 00:39:40;;;;;;;57.75;24.42;;;5.10;99.90;;;;;;5072850;28;20044;-68
2022/01/19 00:42:05;;;;;;;60.08;23.98;;;5.00;99.90;;;;;;5072776;28;20127;-67
2022/01/19 00:44:31;;;;;;;64.10;25.05;;;5.10;99.90;;;;;;5058391;28;20040;-67
2022/01/19 00:46:57;;;;;;;68.30;26.98;;;5.10;99.90;;;;;;5075925;28;20071;-67
2022/01/19 00:49:22;;;;;;;65.85;27.88;;;5.10;99.90;;;;;;5076715;28;20043;-67
2022/01/19 00:51:48;;;;;;;55.10;22.27;;;5.10;99.90;;;;;;5076144;28;20036;-67
2022/01/19 00:54:13;;;;;;;64.43;26.80;;;5.00;99.90;;;;;;5076386;28;20133;-67
2022/01/19 00:56:39;;;;;;;60.22;27.27;;;5.00;99.90;;;;;;5075722;28;20040;-67
2022/01/19 00:59:05;;;;;;;61.08;27.75;;;5.00;99.90;;;;;;5075950;28;20046;-68
2022/01/19 01:01:30;;;;;;;59.08;24.52;;;5.00;99.90;;;;;;5074724;28;20373;-67
2022/01/19 01:03:56;;;;;;;61.03;26.40;;;5.10;99.90;;;;;;5075081;28;20048;-67
2022/01/19 01:06:22;;;;;;;61.63;26.95;;;5.10;99.90;;;;;;5074630;28;20039;-68
2022/01/19 01:08:47;;;;;;;57.53;24.30;;;5.10;99.90;;;;;;5076042;28;20114;-68
2022/01/19 01:11:14;;;;;;;61.88;25.52;;;5.10;99.90;;;;;;5075864;28;20077;-68
2022/01/19 01:18:57;;;;;;;67.68;25.30;;;5.10;99.90;;;;;;5075452;28;20097;-68
2022/01/19 01:21:22;;;;;;;60.45;27.08;;;5.20;99.90;;;;;;5075850;28;20419;-67
2022/01/19 01:23:48;;;;;;;58.97;24.95;;;5.20;99.90;;;;;;5075595;28;20036;-68
2022/01/19 01:26:14;;;;;;;67.68;26.00;;;5.20;99.90;;;;;;5075251;28;20042;-68
2022/01/19 01:28:39;;;;;;;69.40;26.70;;;5.30;99.90;;;;;;5075428;28;20039;-68
2022/01/19 01:31:07;;;;;;;57.53;25.27;;;5.20;99.90;;;;;;5075363;28;20050;-68
2022/01/19 01:33:33;;;;;;;60.95;26.42;;;5.20;99.90;;;;;;5075337;28;20036;-68
2022/01/19 01:35:59;;;;;;;55.10;25.17;;;5.20;99.90;;;;;;5074888;28;20054;-67
2022/01/19 01:38:25;;;;;;;62.72;26.13;;;5.20;99.90;;;;;;5075082;28;20424;-67
2022/01/19 01:40:50;;;;;;;57.47;23.67;;;5.30;99.90;;;;;;5075090;28;20044;-67
2022/01/19 01:43:16;;;;;;;56.55;25.83;;;5.30;99.90;;;;;;5073994;28;20040;-68
2022/01/19 01:45:44;;;;;;;58.17;24.33;;;5.30;99.90;;;;;;5073384;28;20076;-68
2022/01/19 01:48:16;;;;;;;58.47;25.45;;;5.30;99.90;;;;;;5075200;28;20086;-67
2022/01/19 01:53:30;;;;;;;64.07;26.83;;;5.30;99.90;;;;;;5072947;28;20040;-68
2022/01/19 01:56:00;;;;;;;66.75;27.23;;;5.30;99.90;;;;;;5074794;28;20032;-67
2022/01/19 01:58:29;;;;;;;53.28;24.70;;;5.30;99.90;;;;;;5074597;28;20427;-68
2022/01/19 02:00:55;;;;;;;56.70;23.92;;;5.30;99.90;;;;;;5074892;28;20127;-67
2022/01/19 02:03:21;;;;;;;56.30;25.52;;;5.30;99.90;;;;;;5074876;28;20044;-68
2022/01/19 02:08:40;;;;;;;58.13;25.92;;;5.30;99.90;;;;;;5073288;28;20049;-68
2022/01/19 02:16:32;;;;;;;64.90;26.40;;;5.20;99.90;;;;;;5074341;28;20453;-67
2022/01/19 02:22:06;;;;;;;65.63;26.33;;;5.20;99.90;;;;;;5074543;28;20613;-68
2022/01/19 02:24:44;;;;;;;68.53;25.40;;;5.20;99.90;;;;;;5074103;28;20127;-68
2022/01/19 02:40:53;;;;;;;70.40;27.23;;;5.20;99.90;;;;;;5073775;28;20088;-68
2022/01/19 02:43:23;;;;;;;64.75;26.55;;;5.20;99.90;;;;;;5074072;28;20044;-68
2022/01/19 02:51:19;;;;;;;67.22;27.63;;;5.20;99.90;;;;;;5073794;28;20048;-67
2022/01/19 02:53:44;;;;;;;79.15;31.92;;;5.20;99.90;;;;;;5073863;28;20097;-68
2022/01/19 02:56:17;;;;;;;83.75;30.65;;;5.20;99.90;;;;;;5073622;28;20037;-68
2022/01/19 02:58:50;;;;;;;67.82;27.35;;;5.20;99.90;;;;;;5072665;28;20370;-68
2022/01/19 03:09:24;;;;;;;71.80;28.17;;;5.30;99.90;;;;;;5072257;28;20548;-67
2022/01/19 03:11:50;;;;;;;54.53;25.60;;;5.20;99.90;;;;;;5073568;28;20036;-67
2022/01/19 03:14:17;;;;;;;67.60;25.60;;;5.20;99.90;;;;;;5073759;28;20040;-68
2022/01/19 03:16:43;;;;;;;63.00;27.40;;;5.20;99.90;;;;;;5073359;28;20063;-67
2022/01/19 03:19:10;;;;;;;65.95;27.15;;;5.30;99.90;;;;;;5073988;28;20044;-67
2022/01/19 03:21:37;;;;;;;62.35;27.58;;;5.20;99.90;;;;;;5072409;28;20048;-68
2022/01/19 03:24:03;;;;;;;70.57;27.90;;;5.20;99.90;;;;;;5072265;28;20053;-68
2022/01/19 03:26:29;;;;;;;63.38;25.40;;;5.10;99.90;;;;;;5072998;28;20489;-67
2022/01/19 03:28:55;;;;;;;74.20;29.85;;;5.20;99.90;;;;;;5073431;28;20040;-68
2022/01/19 03:31:20;;;;;;;70.28;27.77;;;5.20;99.90;;;;;;5073520;28;20032;-67
2022/01/19 03:33:46;;;;;;;77.82;30.15;;;5.20;99.90;;;;;;5073248;28;20029;-68
2022/01/19 03:36:12;;;;;;;66.88;29.10;;;5.10;99.90;;;;;;5072886;28;20524;-67
2022/01/19 03:38:37;;;;;;;76.00;27.65;;;5.20;99.90;;;;;;5071792;28;20424;-68
2022/01/19 03:41:03;;;;;;;60.08;28.33;;;5.20;99.90;;;;;;5073443;28;20373;-67
2022/01/19 03:43:29;;;;;;;67.32;28.05;;;5.20;99.90;;;;;;5073315;28;20484;-67
2022/01/19 03:45:58;;;;;;;66.18;29.35;;;5.20;99.90;;;;;;5072994;28;20096;-67
2022/01/19 03:50:56;;;;;;;70.33;28.53;;;5.20;99.90;;;;;;5073148;28;20087;-67
2022/01/19 03:53:21;;;;;;;69.97;31.05;;;5.10;99.90;;;;;;5073498;28;20068;-67
2022/01/19 03:55:47;;;;;;;75.72;29.38;;;5.10;99.90;;;;;;5072926;28;20516;-67
2022/01/19 03:58:13;;;;;;;62.53;27.35;;;5.20;99.90;;;;;;5071895;28;20060;-67
2022/01/19 04:00:42;;;;;;;68.05;30.40;;;5.10;99.90;;;;;;5071831;28;20036;-68
2022/01/19 04:03:12;;;;;;;66.53;28.23;;;5.20;99.90;;;;;;5072149;28;20051;-68
2022/01/19 04:05:43;;;;;;;63.92;28.65;;;5.20;99.90;;;;;;5072678;28;20086;-68
2022/01/19 04:08:09;;;;;;;64.97;28.83;;;5.10;99.90;;;;;;5072300;28;20469;-67
2022/01/19 04:10:35;;;;;;;59.45;27.70;;;5.00;99.90;;;;;;5071805;28;20040;-68
2022/01/19 04:13:22;;;;;;;63.53;29.27;;;5.10;99.90;;;;;;5071617;28;20041;-67
2022/01/19 04:15:48;;;;;;;63.58;28.67;;;5.10;99.90;;;;;;5071894;28;20400;-67
2022/01/19 04:18:14;;;;;;;60.20;28.58;;;5.10;99.90;;;;;;5075842;28;20044;-67
2022/01/19 04:20:42;;;;;;;62.70;28.38;;;5.10;99.90;;;;;;5075333;28;20044;-68
2022/01/19 04:23:08;;;;;;;66.07;30.25;;;5.10;99.90;;;;;;5075299;28;20049;-68
2022/01/19 04:25:34;;;;;;;66.95;28.40;;;5.10;99.90;;;;;;5076157;28;20519;-67
2022/01/19 04:28:07;;;;;;;67.18;29.85;;;5.00;99.90;;;;;;5076837;28;20040;-68
2022/01/19 04:30:36;;;;;;;70.20;30.57;;;5.00;99.90;;;;;;5076516;28;20048;-68
2022/01/19 04:33:08;;;;;;;61.78;28.70;;;5.10;99.90;;;;;;5075484;28;20044;-67
2022/01/19 04:35:44;;;;;;;66.47;30.77;;;5.00;99.90;;;;;;5076166;28;20044;-67
2022/01/19 04:46:48;;;;;;;73.25;32.65;;;5.00;99.90;;;;;;5076090;28;20099;-67
2022/01/19 04:54:11;;;;;;;72.57;34.35;;;5.00;99.90;;;;;;5076363;28;20123;-67
2022/01/19 05:04:57;;;;;;;64.88;31.83;;;4.90;99.90;;;;;;5076126;28;20051;-67
2022/01/19 05:07:34;;;;;;;66.38;30.33;;;5.00;99.90;;;;;;5075672;28;20033;-68
2022/01/19 05:13:23;;;;;;;69.90;31.65;;;5.00;99.90;;;;;;5076285;28;20107;-68
2022/01/19 05:15:29;;;;;;;70.65;33.05;;;5.00;99.90;;;;;;5074783;28;20443;-68
2022/01/19 05:17:54;;;;;;;70.47;32.40;;;5.00;99.90;;;;;;5075532;28;20127;-68
2022/01/19 05:20:20;;;;;;;59.88;30.42;;;4.90;99.90;;;;;;5075894;28;20397;-68
2022/01/19 05:22:46;;;;;;;76.07;30.83;;;4.90;99.90;;;;;;5076125;28;20040;-67
2022/01/19 05:25:11;;;;;;;82.07;35.50;;;4.90;99.90;;;;;;5074160;28;20040;-68
2022/01/19 05:27:37;;;;;;;70.40;32.20;;;4.90;99.90;;;;;;5075300;28;20453;-68
2022/01/19 05:30:03;;;;;;;68.38;31.30;;;4.90;99.90;;;;;;5075451;28;20123;-68
2022/01/19 05:32:29;;;;;;;67.10;31.92;;;4.90;99.90;;;;;;5074281;28;20048;-67
2022/01/19 05:34:55;;;;;;;75.00;31.50;;;4.90;99.90;;;;;;5075237;28;20123;-68
2022/01/19 05:37:20;;;;;;;67.13;30.98;;;4.80;99.90;;;;;;5074784;28;20048;-67
2022/01/19 05:39:46;;;;;;;64.00;29.83;;;4.80;99.90;;;;;;5073842;28;20051;-68
2022/01/19 05:42:15;;;;;;;66.25;32.60;;;4.90;99.90;;;;;;5075271;28;20043;-68
2022/01/19 05:44:45;;;;;;;64.22;30.40;;;4.90;99.90;;;;;;5075296;28;20107;-67
2022/01/19 05:47:12;;;;;;;79.40;33.80;;;4.90;99.90;;;;;;5073572;28;20044;-67
2022/01/19 05:49:38;;;;;;;63.22;30.63;;;4.90;99.90;;;;;;5076055;28;20082;-67
2022/01/19 05:52:06;;;;;;;71.18;31.70;;;4.80;99.90;;;;;;5075570;28;20465;-67
2022/01/19 05:54:31;;;;;;;65.75;32.13;;;4.80;99.90;;;;;;5074450;28;20140;-67
2022/01/19 05:56:58;;;;;;;65.20;31.30;;;4.80;99.90;;;;;;5074543;28;20471;-68
2022/01/19 05:59:24;;;;;;;65.85;30.27;;;4.80;99.90;;;;;;5074799;28;20056;-67
2022/01/19 06:01:50;;;;;;;68.28;31.42;;;4.70;99.90;;;;;;5075442;28;20465;-68
2022/01/19 06:04:15;;;;;;;70.30;32.40;;;4.70;99.90;;;;;;5075059;28;20049;-68
2022/01/19 06:06:41;;;;;;;67.70;31.70;;;4.70;99.90;;;;;;5073168;28;20040;-68
2022/01/19 06:09:22;;;;;;;68.65;32.90;;;4.70;99.90;;;;;;5074927;28;20097;-67
2022/01/19 06:11:48;;;;;;;63.00;29.65;;;4.70;99.90;;;;;;5073497;28;20067;-68
2022/01/19 06:14:13;;;;;;;65.53;31.73;;;4.70;99.90;;;;;;5075063;28;20036;-67
2022/01/19 06:16:40;;;;;;;68.32;33.42;;;4.70;99.90;;;;;;5074325;28;20033;-67
2022/01/19 06:19:05;;;;;;;63.63;31.55;;;4.80;99.90;;;;;;5074196;28;20045;-67
2022/01/19 06:21:32;;;;;;;70.07;32.58;;;4.70;99.90;;;;;;5073391;28;20067;-67
2022/01/19 06:23:57;;;;;;;64.80;32.05;;;4.70;99.90;;;;;;5073146;28;20046;-67
2022/01/19 06:26:23;;;;;;;65.90;32.13;;;4.80;99.90;;;;;;5074183;28;20403;-67
2022/01/19 06:28:49;;;;;;;66.10;30.42;;;4.80;99.90;;;;;;5075014;28;20028;-68
2022/01/19 06:31:14;;;;;;;62.47;31.25;;;4.80;99.90;;;;;;5073141;28;20033;-67
2022/01/19 06:33:40;;;;;;;63.75;30.73;;;4.80;99.90;;;;;;5073905;28;20094;-68
2022/01/19 06:36:06;;;;;;;62.08;30.65;;;4.80;99.90;;;;;;5073910;28;20052;-68
2022/01/19 06:38:31;;;;;;;65.22;31.63;;;4.80;99.90;;;;;;5073850;28;20461;-67
2022/01/19 06:40:57;;;;;;;62.00;32.40;;;4.80;99.90;;;;;;5073681;28;20048;-68
2022/01/19 06:43:23;;;;;;;62.67;32.05;;;4.80;99.90;;;;;;5073976;28;20370;-67
2022/01/19 06:45:48;;;;;;;68.93;32.03;;;4.80;99.90;;;;;;5073601;28;20484;-68
2022/01/19 06:48:14;;;;;;;69.18;31.58;;;4.80;99.90;;;;;;5073715;28;20040;-67
2022/01/19 06:50:40;;;;;;;59.35;31.90;;;4.80;99.90;;;;;;5073889;28;20089;-68
2022/01/19 06:53:06;;;;;;;68.15;32.15;;;4.80;99.90;;;;;;5074155;28;20351;-67
2022/01/19 06:55:32;;;;;;;65.28;32.55;;;4.80;99.90;;;;;;5073600;28;20044;-67
2022/01/19 06:57:57;;;;;;;66.78;33.78;;;4.90;99.90;;;;;;5073668;28;20158;-68
2022/01/19 07:00:23;;;;;;;64.43;32.03;;;4.80;99.90;;;;;;5074223;28;20036;-68
2022/01/19 07:02:49;;;;;;;63.90;32.78;;;4.90;99.90;;;;;;5072490;28;20032;-67
2022/01/19 07:05:14;;;;;;;68.22;32.13;;;4.80;99.90;;;;;;5073483;28;20505;-67
2022/01/19 07:07:40;;;;;;;59.60;30.48;;;4.90;99.90;;;;;;5073528;28;20036;-68
2022/01/19 07:10:07;;;;;;;59.40;30.27;;;4.80;99.90;;;;;;5072472;28;20043;-68
2022/01/19 07:12:33;;;;;;;66.07;32.25;;;4.80;99.90;;;;;;5072303;28;20036;-68
2022/01/19 07:14:59;;;;;;;66.50;32.88;;;4.80;99.90;;;;;;5073685;28;20032;-68
2022/01/19 07:17:24;;;;;;;59.70;31.15;;;4.80;99.90;;;;;;5073115;28;20105;-68
2022/01/19 07:19:50;;;;;;;64.05;31.15;;;4.90;99.90;;;;;;5073517;28;20045;-67
2022/01/19 07:22:16;;;;;;;66.78;30.45;;;4.90;99.90;;;;;;5072334;28;20124;-68
2022/01/19 07:24:43;;;;;;;65.72;32.47;;;4.80;99.90;;;;;;5072524;28;20044;-67
2022/01/19 07:27:08;;;;;;;62.95;31.50;;;4.90;99.90;;;;;;5072123;28;20048;-67
2022/01/19 07:29:34;;;;;;;74.45;35.60;;;4.90;99.90;;;;;;5073585;28;20037;-68
2022/01/19 07:32:00;;;;;;;66.40;32.78;;;4.90;99.90;;;;;;5073855;28;20033;-68
2022/01/19 07:34:26;;;;;;;67.18;33.33;;;4.90;99.90;;;;;;5073486;28;20125;-68
2022/01/19 07:36:56;;;;;;;74.60;32.60;;;4.90;99.90;;;;;;5071700;28;20060;-68
2022/01/19 07:39:22;;;;;;;65.22;33.25;;;4.90;99.90;;;;;;5071894;28;20097;-68
2022/01/19 07:41:48;;;;;;;72.00;33.20;;;4.90;99.90;;;;;;5073307;28;20047;-68
2022/01/19 07:44:14;;;;;;;67.20;32.85;;;4.90;99.90;;;;;;5073698;28;20036;-68
2022/01/19 07:46:41;;;;;;;73.10;33.70;;;5.00;99.90;;;;;;5072721;28;20033;-68
2022/01/19 07:49:07;;;;;;;61.33;31.50;;;4.90;99.90;;;;;;5073155;28;20039;-68
2022/01/19 07:51:32;;;;;;;69.07;33.15;;;4.90;99.90;;;;;;5072450;28;20393;-68
2022/01/19 07:53:58;;;;;;;64.32;30.55;;;5.00;99.90;;;;;;5076313;28;20044;-68
2022/01/19 07:56:24;;;;;;;66.68;34.30;;;5.00;99.90;;;;;;5077029;28;20032;-67
2022/01/19 07:58:49;;;;;;;65.88;33.13;;;5.00;99.90;;;;;;5076126;28;20052;-68
2022/01/19 08:01:16;;;;;;;66.20;32.60;;;5.00;99.90;;;;;;5077616;28;20047;-68
2022/01/19 08:03:42;;;;;;;74.07;35.00;;;5.00;99.90;;;;;;5077370;28;20087;-70
2022/01/19 08:06:07;;;;;;;65.13;33.65;;;5.00;99.90;;;;;;5075179;28;20040;-67
2022/01/19 08:08:35;;;;;;;66.65;31.30;;;5.10;99.90;;;;;;5076769;28;20499;-67
2022/01/19 08:11:01;;;;;;;66.30;30.95;;;5.00;99.90;;;;;;5075756;28;20091;-67
2022/01/19 08:13:26;;;;;;;62.20;30.33;;;5.10;99.90;;;;;;5076075;28;20492;-67
2022/01/19 08:15:52;;;;;;;71.68;33.95;;;5.10;99.90;;;;;;5076392;28;20033;-67
2022/01/19 08:18:17;;;;;;;65.55;32.10;;;5.10;99.90;;;;;;5075469;28;20051;-67
2022/01/19 08:20:43;;;;;;;61.65;29.00;;;5.10;99.90;;;;;;5076888;28;20358;-67
2022/01/19 08:23:10;;;;;;;67.97;33.65;;;5.10;99.90;;;;;;5075538;28;20044;-67
2022/01/19 08:25:35;;;;;;;64.88;29.35;;;5.00;99.90;;;;;;5075984;28;20447;-67
2022/01/19 08:28:01;;;;;;;64.80;31.05;;;5.10;99.90;;;;;;5076256;28;20032;-67
2022/01/19 08:30:27;;;;;;;64.32;31.77;;;5.00;99.90;;;;;;5076396;28;20037;-67
2022/01/19 08:32:52;;;;;;;66.13;32.75;;;5.00;99.90;;;;;;5076527;28;20067;-67
2022/01/19 08:35:18;;;;;;;59.60;32.38;;;5.00;99.90;;;;;;5075275;28;20049;-67
2022/01/19 08:37:44;;;;;;;66.30;32.35;;;5.00;99.90;;;;;;5076364;28;20119;-67
2022/01/19 08:40:11;;;;;;;62.90;31.10;;;5.00;99.90;;;;;;5076472;28;20042;-67
2022/01/19 08:42:36;;;;;;;70.38;31.67;;;5.00;99.90;;;;;;5076259;28;20045;-68
2022/01/19 08:45:07;;;;;;;63.15;32.75;;;5.00;99.90;;;;;;5076299;28;20400;-67
2022/01/19 08:47:34;;;;;;;64.88;31.08;;;5.00;99.90;;;;;;5082183;28;20036;-67
2022/01/19 08:50:00;;;;;;;65.88;31.92;;;5.00;99.90;;;;;;5086137;28;20036;-67
2022/01/19 08:52:25;;;;;;;66.93;31.52;;;5.00;99.90;;;;;;5085324;28;20089;-67
2022/01/19 08:54:51;;;;;;;55.03;30.63;;;5.00;99.90;;;;;;5085549;28;20043;-67
2022/01/19 08:57:18;;;;;;;55.72;28.85;;;5.10;99.90;;;;;;5092039;28;20044;-67
2022/01/19 08:59:43;;;;;;;52.40;29.30;;;5.20;99.90;;;;;;5094464;28;20050;-67
2022/01/19 09:02:09;;;;;;;61.38;29.98;;;5.20;99.90;;;;;;5084272;28;20029;-67
2022/01/19 09:04:35;;;;;;;62.67;30.23;;;5.30;99.90;;;;;;5088825;28;20097;-71
2022/01/19 09:07:01;;;;;;;64.65;31.55;;;5.20;99.90;;;;;;5093964;28;20085;-67
2022/01/19 09:09:27;;;;;;;59.15;30.90;;;5.20;99.90;;;;;;5082348;28;20070;-67
2022/01/19 09:11:53;;;;;;;58.92;30.85;;;5.20;99.90;;;;;;5083020;28;20118;-68
2022/01/19 09:14:18;;;;;;;61.17;29.45;;;5.20;99.90;;;;;;5075197;28;20080;-67
2022/01/19 09:16:49;;;;;;;62.95;31.98;;;5.20;99.90;;;;;;5075604;28;20041;-67
2022/01/19 09:19:15;;;;;;;57.28;30.15;;;5.20;99.90;;;;;;5075530;28;20041;-67
2022/01/19 09:21:41;;;;;;;54.28;30.02;;;5.20;99.90;;;;;;5075516;28;20037;-68
2022/01/19 09:24:06;;;;;;;59.38;29.98;;;5.30;99.90;;;;;;5075290;28;20039;-67
2022/01/19 09:26:32;;;;;;;56.10;29.20;;;5.20;99.90;;;;;;5074802;28;20539;-67
2022/01/19 09:28:57;;;;;;;60.42;29.70;;;5.20;99.90;;;;;;5075428;28;20040;-67
2022/01/19 09:31:24;;;;;;;65.75;30.42;;;5.20;99.90;;;;;;5075537;28;20040;-67
2022/01/19 09:34:02;;;;;;;59.83;30.27;;;5.30;99.90;;;;;;5075117;28;20036;-68
2022/01/19 09:38:57;;;;;;;60.67;30.45;;;5.40;99.90;;;;;;5074042;28;20051;-67
2022/01/19 09:41:23;;;;;;;64.55;32.28;;;5.40;99.90;;;;;;5057385;28;20048;-68
2022/01/19 09:43:48;;;;;;;61.38;30.27;;;5.40;99.90;;;;;;5073861;28;20044;-68
2022/01/19 09:46:14;;;;;;;55.75;30.50;;;5.50;99.90;;;;;;5074826;28;20128;-67
2022/01/19 09:48:40;;;;;;;57.05;28.50;;;5.50;99.90;;;;;;5075100;28;20392;-68
2022/01/19 09:51:06;;;;;;;55.28;29.35;;;5.60;99.90;;;;;;5074767;28;20079;-67
2022/01/19 09:53:32;;;;;;;58.58;31.85;;;5.60;99.90;;;;;;5075109;28;20119;-68
2022/01/19 09:55:57;;;;;;;56.90;30.52;;;5.60;99.90;;;;;;5075098;28;20079;-67
2022/01/19 09:58:23;;;;;;;61.97;31.25;;;5.60;99.90;;;;;;5074835;28;20107;-67
2022/01/19 10:00:50;;;;;;;60.60;30.58;;;5.60;99.90;;;;;;5075132;28;20036;-67
2022/01/19 10:03:23;;;;;;;59.20;31.13;;;5.60;99.90;;;;;;5075161;28;20426;-67
2022/01/19 10:05:55;;;;;;;58.90;30.70;;;5.60;99.90;;;;;;5074347;28;20055;-67
2022/01/19 10:08:33;;;;;;;55.28;28.48;;;5.60;99.90;;;;;;5073105;28;20075;-68
2022/01/19 10:11:27;;;;;;;54.13;30.35;;;5.60;99.90;;;;;;5074492;28;20047;-67
2022/01/19 10:16:59;;;;;;;62.08;31.55;;;5.70;99.90;;;;;;5060538;28;20036;-67
2022/01/19 10:19:28;;;;;;;60.35;29.88;;;5.60;99.90;;;;;;5075772;28;20109;-67
2022/01/19 10:21:59;;;;;;;53.35;30.52;;;5.70;99.90;;;;;;5085849;28;20090;-68
2022/01/19 10:24:35;;;;;;;59.50;30.65;;;5.60;99.90;;;;;;5073013;28;20523;-68
2022/01/19 10:27:22;;;;;;;55.25;30.67;;;5.60;99.90;;;;;;5073698;28;20047;-68
2022/01/19 10:29:55;;;;;;;58.63;31.23;;;5.60;99.90;;;;;;5073145;28;20113;-67
2022/01/19 10:32:25;;;;;;;59.70;30.93;;;5.60;99.90;;;;;;5076866;28;20396;-67
2022/01/19 10:34:52;;;;;;;58.45;30.98;;;5.60;99.90;;;;;;5076563;28;20044;-67
2022/01/19 10:37:28;;;;;;;60.38;32.25;;;5.60;99.90;;;;;;5073451;28;20048;-68
2022/01/19 10:39:57;;;;;;;59.40;33.33;;;5.60;99.90;;;;;;5072880;28;20131;-67
2022/01/19 10:42:27;;;;;;;55.45;30.83;;;5.50;99.90;;;;;;5072615;28;20048;-67
2022/01/19 10:45:04;;;;;;;62.80;33.50;;;5.50;99.90;;;;;;5072683;28;20033;-67
2022/01/19 10:47:39;;;;;;;58.25;32.40;;;5.50;99.90;;;;;;5055723;28;20430;-67
2022/01/19 10:50:06;;;;;;;64.85;34.50;;;5.60;99.90;;;;;;5072461;28;20502;-67
2022/01/19 10:52:36;;;;;;;57.40;32.40;;;5.60;99.90;;;;;;5073523;28;20492;-67
2022/01/19 10:55:05;;;;;;;54.78;32.08;;;5.60;99.90;;;;;;5073908;28;20051;-68
2022/01/19 10:57:37;;;;;;;60.75;33.38;;;5.50;99.90;;;;;;5073485;28;20047;-67
2022/01/19 11:00:12;;;;;;;65.03;33.10;;;5.50;99.90;;;;;;5073545;28;20504;-67
2022/01/19 11:02:39;;;;;;;66.28;34.28;;;5.50;99.90;;;;;;5078693;28;20082;-67
2022/01/19 11:05:05;;;;;;;62.13;32.17;;;5.50;99.90;;;;;;5084358;28;20475;-67
2022/01/19 11:07:31;;;;;;;66.78;33.42;;;5.50;99.90;;;;;;5082265;28;20036;-69
2022/01/19 11:10:00;;;;;;;64.28;34.10;;;5.60;99.90;;;;;;5093598;28;20388;-68
2022/01/19 11:12:29;;;;;;;65.22;32.72;;;5.50;99.90;;;;;;5093678;28;20122;-68
2022/01/19 11:14:56;;;;;;;61.28;35.47;;;5.50;99.90;;;;;;5094142;28;20097;-68
2022/01/19 11:17:22;;;;;;;64.63;35.67;;;5.50;99.90;;;;;;5092859;28;20393;-68
2022/01/19 11:19:49;;;;;;;60.15;34.58;;;5.50;99.90;;;;;;5092459;28;20070;-68
2022/01/19 11:22:37;;;;;;;61.72;33.53;;;5.50;99.90;;;;;;5093564;28;20055;-68
2022/01/19 11:25:30;;;;;;;63.38;36.22;;;5.60;99.90;;;;;;5092227;28;20048;-68
2022/01/19 11:27:55;;;;;;;70.60;36.80;;;5.50;99.90;;;;;;5093239;28;20384;-69
2022/01/19 11:30:24;;;;;;;65.72;37.30;;;5.50;99.90;;;;;;5092215;28;20044;-68
2022/01/19 11:33:27;;;;;;;62.22;34.78;;;5.50;99.90;;;;;;5092121;28;20123;-68
2022/01/19 11:36:00;;;;;;;69.75;36.70;;;5.60;99.90;;;;;;5091867;28;20075;-68
2022/01/19 11:38:33;;;;;;;;;;;5.60;99.90;;;;;;5090212;28;20055;-68
2022/01/19 11:41:02;;;;;;;63.95;36.17;;;5.60;99.90;;;;;;5085201;28;19945;-72
2022/01/19 11:43:29;;;;;;;78.03;38.25;;;5.60;99.90;;;;;;5087809;28;20117;-71
2022/01/19 11:45:57;;;;;;;70.10;38.33;;;5.60;99.90;;;;;;5093147;28;20047;-68
2022/01/19 11:48:25;;;;;;;74.65;39.13;;;5.60;99.90;;;;;;5093570;28;20042;-68
2022/01/19 11:50:53;;;;;;;71.00;39.20;;;5.60;99.90;;;;;;5070765;28;20477;-68
2022/01/19 11:53:19;;;;;;;73.38;38.83;;;5.70;99.90;;;;;;5071672;28;20119;-68
2022/01/19 11:56:06;;;;;;;73.25;38.38;;;5.70;99.90;;;;;;5072708;28;20690;-68
2022/01/19 11:58:33;;;;;;;75.13;40.00;;;5.70;99.90;;;;;;5072778;28;20037;-68
2022/01/19 12:00:58;;;;;;;75.70;39.50;;;5.80;99.90;;;;;;5072888;28;20037;-67
2022/01/19 12:03:28;;;;;;;74.38;38.45;;;5.80;99.90;;;;;;5072954;28;20052;-68
2022/01/19 12:05:55;;;;;;;75.30;38.03;;;5.80;99.90;;;;;;5072662;28;20082;-68
2022/01/19 12:08:29;;;;;;;77.95;41.08;;;5.80;99.90;;;;;;5072841;28;20401;-68
2022/01/19 12:10:58;;;;;;;84.53;40.10;;;5.80;99.90;;;;;;5073062;28;20040;-68
2022/01/19 12:19:10;;;;;;;75.90;39.33;;;5.90;99.90;;;;;;5071556;28;20055;-68
2022/01/19 12:21:48;;;;;;;87.13;41.25;;;5.90;99.90;;;;;;5071372;28;20401;-68
2022/01/19 12:24:21;;;;;;;80.22;40.17;;;6.00;99.90;;;;;;5071839;28;20071;-68
2022/01/19 12:26:56;;;;;;;81.78;41.20;;;6.00;99.90;;;;;;5071082;28;20052;-72
2022/01/19 12:29:34;;;;;;;83.38;39.35;;;5.90;99.90;;;;;;5075041;28;20036;-68
2022/01/19 12:32:23;;;;;;;72.82;38.88;;;6.00;99.90;;;;;;5091857;28;20404;-68
2022/01/19 12:34:50;;;;;;;72.50;37.30;;;5.90;99.90;;;;;;5090463;28;20056;-67
2022/01/19 12:37:37;;;;;;;74.70;39.13;;;5.90;99.90;;;;;;5092407;28;20403;-68
2022/01/19 12:40:25;;;;;;;77.57;40.05;;;5.90;99.90;;;;;;5095408;28;20082;-68
2022/01/19 12:42:57;;;;;;;80.68;41.22;;;5.90;99.90;;;;;;5094958;28;20066;-68
2022/01/19 12:45:26;;;;;;;73.55;38.70;;;5.90;99.90;;;;;;5096543;28;20039;-68
2022/01/19 12:47:55;;;;;;;82.25;39.28;;;5.90;99.90;;;;;;5095145;28;20051;-68
2022/01/19 12:50:21;;;;;;;74.32;38.88;;;5.90;99.90;;;;;;5096663;28;20094;-68
2022/01/19 12:52:48;;;;;;;69.97;38.50;;;5.90;99.90;;;;;;5096221;28;20132;-68
2022/01/19 12:55:20;;;;;;;70.45;37.88;;;6.00;99.90;;;;;;5096481;28;20043;-68
2022/01/19 12:57:47;;;;;;;74.45;37.47;;;6.00;99.90;;;;;;5096006;28;20040;-68
2022/01/19 13:00:16;;;;;;;74.22;38.10;;;6.00;99.90;;;;;;5096333;28;20047;-68
2022/01/19 13:02:41;;;;;;;69.03;34.95;;;6.00;99.90;;;;;;5096196;28;20115;-69
2022/01/19 13:05:10;;;;;;;75.18;36.17;;;5.90;99.90;;;;;;5095056;28;20123;-68
2022/01/19 13:07:42;;;;;;;75.18;36.72;;;6.00;99.90;;;;;;5095679;28;20040;-68
2022/01/19 13:15:22;;;;;;;74.85;35.63;;;6.10;99.90;;;;;;5095868;28;20054;-68
2022/01/19 13:17:50;;;;;;;70.63;36.05;;;6.10;99.90;;;;;;5095377;28;20115;-68
2022/01/19 13:20:23;;;;;;;67.50;37.90;;;6.20;99.90;;;;;;5095927;28;20388;-68
2022/01/19 13:22:57;;;;;;;72.07;36.30;;;6.20;99.90;;;;;;5096098;28;20467;-68
2022/01/19 13:25:28;;;;;;;71.93;34.67;;;6.20;99.90;;;;;;5096149;28;20048;-68
2022/01/19 13:27:55;;;;;;;60.30;33.42;;;6.20;99.90;;;;;;5095771;28;20063;-69
2022/01/19 13:30:22;;;;;;;72.22;37.35;;;6.20;99.90;;;;;;5095570;28;20075;-68
2022/01/19 13:32:48;;;;;;;64.65;35.00;;;6.20;99.90;;;;;;5095883;28;20036;-68
2022/01/19 13:35:15;;;;;;;62.72;32.45;;;6.20;99.90;;;;;;5095789;28;20044;-68
2022/01/19 13:37:51;;;;;;;64.13;34.42;;;6.20;99.90;;;;;;5094177;28;20042;-68
2022/01/19 13:40:21;;;;;;;65.28;32.38;;;6.20;99.90;;;;;;5095739;28;20510;-68
2022/01/19 13:42:51;;;;;;;71.57;34.33;;;6.20;99.90;;;;;;5093996;28;20044;-68
2022/01/19 13:45:47;;;;;;;63.72;33.75;;;6.20;99.90;;;;;;5095775;28;20039;-68
2022/01/19 13:50:44;;;;;;;68.32;35.38;;;6.30;99.90;;;;;;5088979;28;20086;-68
2022/01/19 13:53:11;;;;;;;63.40;33.60;;;6.30;99.90;;;;;;5079913;28;20041;-68
2022/01/19 13:55:37;;;;;;;63.47;34.70;;;6.30;99.90;;;;;;5083503;28;20040;-68
2022/01/19 13:58:14;;;;;;;65.13;32.45;;;6.30;99.90;;;;;;5076530;28;20060;-68
2022/01/19 14:00:57;;;;;;;63.15;32.28;;;6.30;99.90;;;;;;5074731;28;20119;-69
2022/01/19 14:03:25;;;;;;;73.45;33.92;;;6.30;99.90;;;;;;5074756;28;20037;-69
2022/01/19 14:05:53;;;;;;;70.03;34.50;;;6.30;99.90;;;;;;5074229;28;20032;-68
2022/01/19 14:08:31;;;;;;;79.97;35.35;;;6.20;99.90;;;;;;5082506;28;20483;-68
2022/01/19 14:10:57;;;;;;;79.55;35.63;;;6.10;99.90;;;;;;5092322;28;20036;-69
2022/01/19 14:13:37;;;;;;;70.32;34.72;;;6.10;99.90;;;;;;5087032;28;20043;-68
2022/01/19 14:16:24;;;;;;;71.63;35.88;;;6.10;99.90;;;;;;5084900;28;20047;-69